createdAt,value
2018-06-25T00:00:19.920Z,58.65
2018-06-25T00:02:50.534Z,58.26
2018-06-25T00:05:21.770Z,58.08
2018-06-25T00:07:52.260Z,59.51
2018-06-25T00:10:23.307Z,56.95
2018-06-25T00:12:53.800Z,57.79
2018-06-25T00:15:24.184Z,57.92
2018-06-25T00:17:55.996Z,58.05
2018-06-25T00:20:27.916Z,58.76
2018-06-25T00:22:58.702Z,58.05
2018-06-25T00:25:30.068Z,55.82
2018-06-25T00:28:01.289Z,57.10
2018-06-25T00:30:32.273Z,56.95
2018-06-25T00:33:03.567Z,57.25
2018-06-25T00:35:34.344Z,57.78
2018-06-25T00:38:05.427Z,56.58
2018-06-25T00:40:36.190Z,57.10
2018-06-25T00:43:06.962Z,56.56
2018-06-25T00:45:37.492Z,57.99
2018-06-25T00:48:08.298Z,57.15
2018-06-25T00:50:38.717Z,56.50
2018-06-25T00:53:10.371Z,54.50
2018-06-25T00:55:41.016Z,55.04
2018-06-25T00:58:11.519Z,57.00
2018-06-25T01:00:43.019Z,57.17
2018-06-25T01:03:13.559Z,57.70
2018-06-25T01:05:44.337Z,58.67
2018-06-25T01:08:15.842Z,58.13
2018-06-25T01:10:46.448Z,55.15
2018-06-25T01:13:17.131Z,55.55
2018-06-25T01:15:47.294Z,54.35
2018-06-25T01:18:18.137Z,55.68
2018-06-25T01:20:49.189Z,55.74
2018-06-25T01:23:20.388Z,54.88
2018-06-25T01:25:51.311Z,54.48
2018-06-25T01:28:22.878Z,54.31
2018-06-25T01:30:53.548Z,57.05
2018-06-25T01:33:24.901Z,57.50
2018-06-25T01:35:56.004Z,57.48
2018-06-25T01:38:26.463Z,57.35
2018-06-25T01:40:56.835Z,58.03
2018-06-25T01:43:27.582Z,58.49
2018-06-25T01:45:58.242Z,58.26
2018-06-25T01:48:28.694Z,57.92
2018-06-25T01:50:59.746Z,57.72
2018-06-25T01:53:30.422Z,55.91
2018-06-25T01:56:01.148Z,57.78
2018-06-25T01:58:31.812Z,56.35
2018-06-25T02:01:02.841Z,54.50
2018-06-25T02:03:33.677Z,54.85
2018-06-25T02:06:04.552Z,54.05
2018-06-25T02:08:36.209Z,54.32
2018-06-25T02:11:06.997Z,54.79
2018-06-25T02:13:38.644Z,54.46
2018-06-25T02:16:09.349Z,56.03
2018-06-25T02:18:40.165Z,55.66
2018-06-25T02:21:10.708Z,55.06
2018-06-25T02:23:41.171Z,54.93
2018-06-25T02:26:11.474Z,54.67
2018-06-25T02:28:42.136Z,56.45
2018-06-25T02:31:12.696Z,56.62
2018-06-25T02:33:43.533Z,56.39
2018-06-25T02:36:14.214Z,57.68
2018-06-25T02:38:44.717Z,58.26
2018-06-25T02:41:15.567Z,58.00
2018-06-25T02:43:46.309Z,57.90
2018-06-25T02:46:16.959Z,59.18
2018-06-25T02:48:47.378Z,58.12
2018-06-25T02:51:17.779Z,58.64
2018-06-25T02:53:48.736Z,58.68
2018-06-25T02:56:19.624Z,58.13
2018-06-25T02:58:50.264Z,58.64
2018-06-25T03:01:20.969Z,58.39
2018-06-25T03:03:51.668Z,58.93
2018-06-25T03:06:22.059Z,58.56
2018-06-25T03:08:52.740Z,58.74
2018-06-25T03:11:24.895Z,58.35
2018-06-25T03:13:56.217Z,64.07
2018-06-25T03:16:27.459Z,60.49
2018-06-25T03:18:58.457Z,60.75
2018-06-25T03:21:28.709Z,58.48
2018-06-25T03:23:59.084Z,56.76
2018-06-25T03:26:29.684Z,56.00
2018-06-25T03:29:00.552Z,56.80
2018-06-25T03:31:30.851Z,54.87
2018-06-25T03:34:02.228Z,53.08
2018-06-25T03:36:32.886Z,52.50
2018-06-25T03:39:03.669Z,53.02
2018-06-25T03:41:34.682Z,52.79
2018-06-25T03:44:05.281Z,52.39
2018-06-25T03:46:36.716Z,51.62
2018-06-25T03:49:07.403Z,50.84
2018-06-25T03:51:38.302Z,51.20
2018-06-25T03:54:09.184Z,52.49
2018-06-25T03:56:40.172Z,53.61
2018-06-25T03:59:10.652Z,53.66
2018-06-25T04:01:41.304Z,54.19
2018-06-25T04:04:11.899Z,54.18
2018-06-25T04:06:43.369Z,54.45
2018-06-25T04:09:14.365Z,55.16
2018-06-25T04:11:45.022Z,56.06
2018-06-25T04:14:16.148Z,55.93
2018-06-25T04:16:47.145Z,55.82
2018-06-25T04:19:17.796Z,55.96
2018-06-25T04:21:49.508Z,56.57
2018-06-25T04:24:20.372Z,56.98
2018-06-25T04:26:52.027Z,57.17
2018-06-25T04:29:22.776Z,57.01
2018-06-25T04:31:53.129Z,57.28
2018-06-25T04:34:23.553Z,56.98
2018-06-25T04:36:54.183Z,57.17
2018-06-25T04:39:25.068Z,56.61
2018-06-25T04:41:56.006Z,56.06
2018-06-25T04:44:26.707Z,57.07
2018-06-25T04:46:57.184Z,56.64
2018-06-25T04:49:27.908Z,56.17
2018-06-25T04:51:58.722Z,56.27
2018-06-25T04:54:29.682Z,57.68
2018-06-25T04:57:02.531Z,58.07
2018-06-25T04:59:34.222Z,57.67
2018-06-25T05:02:05.107Z,58.00
2018-06-25T05:04:35.661Z,57.17
2018-06-25T05:07:09.236Z,57.75
2018-06-25T05:09:39.715Z,58.51
2018-06-25T05:12:10.480Z,57.72
2018-06-25T05:14:41.188Z,59.06
2018-06-25T05:17:11.885Z,58.73
2018-06-25T05:19:42.628Z,58.81
2018-06-25T05:22:13.654Z,59.31
2018-06-25T05:24:45.268Z,58.78
2018-06-25T05:27:15.719Z,58.85
2018-06-25T05:29:46.865Z,58.87
2018-06-25T05:32:17.537Z,58.10
2018-06-25T05:34:48.138Z,57.50
2018-06-25T05:37:19.001Z,57.89
2018-06-25T05:39:49.796Z,56.89
2018-06-25T05:42:20.468Z,56.61
2018-06-25T05:44:53.080Z,57.20
2018-06-25T05:47:24.071Z,57.21
2018-06-25T05:49:55.253Z,56.90
2018-06-25T05:52:26.360Z,56.57
2018-06-25T05:54:57.489Z,56.94
2018-06-25T05:57:28.577Z,56.54
2018-06-25T05:59:59.097Z,56.06
2018-06-25T06:02:30.787Z,55.80
2018-06-25T06:05:01.609Z,55.81
2018-06-25T06:07:33.057Z,56.00
2018-06-25T06:10:03.941Z,56.40
2018-06-25T06:12:34.562Z,56.58
2018-06-25T06:15:05.421Z,56.33
2018-06-25T06:17:36.245Z,56.63
2018-06-25T06:20:07.039Z,56.56
2018-06-25T06:22:37.672Z,55.60
2018-06-25T06:25:08.349Z,55.63
2018-06-25T06:27:38.981Z,55.79
2018-06-25T06:30:09.424Z,55.96
2018-06-25T06:32:40.441Z,56.12
2018-06-25T06:35:11.118Z,56.43
2018-06-25T06:37:42.196Z,55.73
2018-06-25T06:40:13.523Z,56.56
2018-06-25T06:42:44.104Z,56.16
2018-06-25T06:45:14.457Z,55.79
2018-06-25T06:47:45.012Z,56.13
2018-06-25T06:50:15.920Z,55.97
2018-06-25T06:52:46.394Z,55.67
2018-06-25T06:55:17.695Z,55.82
2018-06-25T06:57:48.440Z,55.69
2018-06-25T07:00:19.887Z,55.30
2018-06-25T07:02:50.226Z,55.49
2018-06-25T07:05:21.792Z,55.84
2018-06-25T07:07:52.475Z,55.84
2018-06-25T07:10:23.013Z,55.98
2018-06-25T07:12:54.038Z,57.11
2018-06-25T07:15:25.234Z,56.66
2018-06-25T07:17:59.112Z,56.12
2018-06-25T07:20:29.663Z,56.06
2018-06-25T07:23:01.181Z,55.77
2018-06-25T07:25:32.419Z,55.23
2018-06-25T07:28:02.857Z,55.32
2018-06-25T07:30:33.696Z,55.29
2018-06-25T07:33:04.849Z,54.84
2018-06-25T07:35:35.701Z,55.42
2018-06-25T07:38:06.787Z,55.14
2018-06-25T07:40:37.601Z,54.09
2018-06-25T07:43:08.597Z,53.96
2018-06-25T07:45:39.429Z,53.95
2018-06-25T07:48:10.747Z,53.94
2018-06-25T07:50:42.283Z,53.90
2018-06-25T07:53:13.326Z,53.86
2018-06-25T07:55:44.033Z,53.73
2018-06-25T07:58:14.935Z,53.06
2018-06-25T08:00:45.845Z,52.34
2018-06-25T08:05:46.101Z,52.10
2018-06-25T08:08:17.877Z,51.61
2018-06-25T08:10:48.868Z,52.15
2018-06-25T08:13:19.929Z,52.18
2018-06-25T08:15:50.374Z,52.16
2018-06-25T08:18:20.613Z,51.91
2018-06-25T08:20:51.496Z,51.94
2018-06-25T08:23:21.600Z,51.38
2018-06-25T08:25:52.410Z,51.37
2018-06-25T08:28:23.094Z,50.78
2018-06-25T08:30:54.123Z,50.23
2018-06-25T08:33:25.461Z,50.99
2018-06-25T08:35:56.413Z,50.22
2018-06-25T08:38:27.392Z,50.58
2018-06-25T08:40:57.880Z,50.58
2018-06-25T08:43:28.857Z,50.26
2018-06-25T08:45:59.540Z,50.78
2018-06-25T08:48:30.097Z,51.15
2018-06-25T08:51:00.661Z,51.29
2018-06-25T08:53:31.252Z,50.62
2018-06-25T08:56:02.442Z,50.24
2018-06-25T08:58:33.184Z,49.29
2018-06-25T09:01:04.081Z,50.12
2018-06-25T09:03:34.760Z,49.95
2018-06-25T09:06:06.273Z,48.93
2018-06-25T09:08:37.856Z,49.22
2018-06-25T09:11:08.515Z,49.10
2018-06-25T09:13:40.510Z,49.61
2018-06-25T09:16:11.169Z,49.51
2018-06-25T09:18:42.105Z,49.55
2018-06-25T09:21:13.670Z,49.05
2018-06-25T09:23:44.279Z,48.67
2018-06-25T09:26:15.470Z,49.17
2018-06-25T09:28:46.313Z,47.89
2018-06-25T09:31:17.169Z,47.76
2018-06-25T09:33:48.199Z,47.95
2018-06-25T09:36:19.213Z,48.60
2018-06-25T09:38:50.194Z,48.75
2018-06-25T09:41:21.141Z,46.97
2018-06-25T09:43:52.072Z,47.23
2018-06-25T09:46:22.851Z,47.74
2018-06-25T09:48:53.192Z,48.53
2018-06-25T09:51:23.834Z,48.55
2018-06-25T09:53:54.495Z,47.29
2018-06-25T09:56:25.317Z,46.95
2018-06-25T09:58:56.106Z,46.78
2018-06-25T10:01:26.725Z,47.34
2018-06-25T10:03:57.393Z,47.52
2018-06-25T10:06:28.124Z,46.65
2018-06-25T10:08:58.571Z,47.10
2018-06-25T10:11:29.860Z,47.46
2018-06-25T10:14:00.795Z,48.00
2018-06-25T10:16:31.308Z,47.48
2018-06-25T10:19:02.001Z,46.69
2018-06-25T10:21:33.236Z,47.39
2018-06-25T10:24:03.920Z,47.30
2018-06-25T10:26:34.588Z,46.62
2018-06-25T10:29:05.429Z,47.17
2018-06-25T10:31:36.240Z,47.14
2018-06-25T10:34:07.330Z,47.43
2018-06-25T10:36:37.744Z,46.24
2018-06-25T10:39:10.864Z,46.86
2018-06-25T10:41:41.613Z,46.14
2018-06-25T10:44:12.243Z,46.29
2018-06-25T10:46:43.106Z,46.29
2018-06-25T10:49:13.794Z,45.68
2018-06-25T10:51:44.270Z,46.83
2018-06-25T10:54:15.087Z,45.96
2018-06-25T10:56:45.800Z,46.35
2018-06-25T10:59:16.358Z,46.53
2018-06-25T11:01:47.064Z,47.00
2018-06-25T11:04:17.759Z,47.13
2018-06-25T11:06:48.423Z,47.44
2018-06-25T11:09:19.096Z,46.82
2018-06-25T11:11:49.991Z,46.77
2018-06-25T11:14:21.209Z,47.34
2018-06-25T11:16:51.775Z,46.41
2018-06-25T11:19:22.463Z,47.04
2018-06-25T11:21:53.013Z,45.61
2018-06-25T11:24:24.036Z,46.06
2018-06-25T11:26:54.968Z,46.10
2018-06-25T11:29:25.762Z,46.23
2018-06-25T11:31:56.131Z,45.99
2018-06-25T11:34:26.997Z,46.27
2018-06-25T11:36:57.708Z,46.24
2018-06-25T11:39:28.732Z,45.88
2018-06-25T11:41:59.301Z,45.56
2018-06-25T11:44:29.869Z,44.28
2018-06-25T11:47:00.347Z,44.76
2018-06-25T11:49:31.355Z,44.92
2018-06-25T11:52:01.815Z,45.53
2018-06-25T11:54:32.479Z,44.64
2018-06-25T11:57:03.425Z,45.00
2018-06-25T11:59:34.172Z,45.21
2018-06-25T12:02:04.698Z,44.96
2018-06-25T12:04:35.563Z,45.57
2018-06-25T12:07:06.588Z,44.94
2018-06-25T12:09:37.253Z,44.45
2018-06-25T12:12:08.034Z,44.70
2018-06-25T12:14:38.403Z,44.55
2018-06-25T12:17:09.436Z,44.07
2018-06-25T12:19:40.054Z,44.45
2018-06-25T12:22:10.980Z,43.23
2018-06-25T12:24:41.759Z,45.50
2018-06-25T12:27:12.281Z,45.32
2018-06-25T12:29:42.588Z,45.75
2018-06-25T12:32:13.345Z,46.27
2018-06-25T12:34:43.724Z,46.83
2018-06-25T12:37:14.164Z,46.73
2018-06-25T12:39:44.702Z,47.26
2018-06-25T12:42:14.980Z,47.57
2018-06-25T12:44:45.292Z,48.12
2018-06-25T12:47:16.301Z,47.59
2018-06-25T12:49:47.114Z,47.43
2018-06-25T12:52:18.005Z,47.20
2018-06-25T12:54:48.693Z,47.70
2018-06-25T12:57:19.371Z,49.16
2018-06-25T12:59:50.009Z,50.28
2018-06-25T13:02:20.740Z,50.69
2018-06-25T13:04:52.293Z,50.78
2018-06-25T13:07:22.923Z,50.04
2018-06-25T13:09:59.849Z,52.15
2018-06-25T13:12:30.357Z,51.82
2018-06-25T13:15:01.730Z,50.83
2018-06-25T13:17:32.841Z,49.30
2018-06-25T13:20:03.361Z,49.34
2018-06-25T13:22:34.200Z,50.72
2018-06-25T13:25:05.701Z,50.71
2018-06-25T13:27:36.283Z,50.67
2018-06-25T13:30:06.928Z,50.34
2018-06-25T13:32:37.841Z,50.54
2018-06-25T13:35:08.584Z,50.32
2018-06-25T13:37:39.184Z,49.54
2018-06-25T13:40:10.632Z,49.09
2018-06-25T13:42:42.558Z,48.81
2018-06-25T13:45:13.728Z,47.98
2018-06-25T13:47:44.901Z,47.86
2018-06-25T13:50:15.611Z,47.57
2018-06-25T13:52:47.606Z,48.28
2018-06-25T13:55:17.797Z,47.52
2018-06-25T13:57:48.965Z,46.47
2018-06-25T14:00:19.457Z,46.58
2018-06-25T14:02:50.669Z,45.34
2018-06-25T14:05:21.467Z,46.05
2018-06-25T14:07:52.559Z,45.75
2018-06-25T14:10:23.885Z,45.37
2018-06-25T14:12:54.635Z,44.82
2018-06-25T14:15:26.523Z,44.87
2018-06-25T14:17:57.398Z,45.02
2018-06-25T14:20:28.064Z,44.43
2018-06-25T14:22:59.314Z,44.17
2018-06-25T14:25:35.063Z,44.52
2018-06-25T14:28:10.840Z,44.55
2018-06-25T14:30:46.736Z,44.52
2018-06-25T14:33:21.598Z,43.89
2018-06-25T14:35:52.404Z,45.29
2018-06-25T14:38:23.388Z,44.45
2018-06-25T14:40:53.955Z,43.83
2018-06-25T14:43:25.103Z,44.87
2018-06-25T14:45:56.411Z,44.47
2018-06-25T14:48:27.225Z,43.12
2018-06-25T14:50:58.234Z,43.48
2018-06-25T14:53:28.960Z,43.25
2018-06-25T14:55:59.648Z,42.85
2018-06-25T14:58:30.549Z,42.29
2018-06-25T15:01:01.483Z,43.56
2018-06-25T15:03:32.422Z,39.67
2018-06-25T15:06:03.174Z,40.30
2018-06-25T15:08:34.083Z,40.43
2018-06-25T15:11:05.184Z,39.23
2018-06-25T15:13:35.754Z,40.44
2018-06-25T15:16:06.736Z,39.83
2018-06-25T15:18:38.919Z,39.16
2018-06-25T15:21:09.624Z,36.99
2018-06-25T15:23:40.696Z,36.62
2018-06-25T15:26:13.557Z,34.04
2018-06-25T15:28:44.409Z,34.04
2018-06-25T15:31:15.851Z,33.72
